AUA25YP EDDS-LOWW
Flight info
| Callsign | AUA25YP |
|---|---|
| Flight time | N/A |
| Altitude | 31000 |
| Route | ABTAL4H/07 ABTAL L173 RIXED Y161 RIDAR Z98 MIQ L605 BIBAG Q104 AKIMA DCT MASUR MASUR3W |
| Aircraft | B772/H-SDE2E3FGHIJ5LORVWXY/LB1D1 |
Departure
| Time | 2026-05-01 14:41 |
|---|---|
| Airport | Stuttgart Airport (EDDS) |
Arrival
| Time | N/A |
|---|---|
| Airport | Vienna International Airport (LOWW) |
| Time | Latitude | Longitude | Altitude | Speed | Heading |
|---|---|---|---|---|---|
| 2026-05-01 14:00 | 48.69109 | 9.20246 | 1330 ft | 0 kts | 344° |
| 2026-05-01 14:22 | 48.69098 | 9.20251 | 1302 ft | 4 kts | 343° |
| 2026-05-01 14:22 | 48.69073 | 9.20264 | 1301 ft | 4 kts | 336° |
| 2026-05-01 14:22 | 48.69050 | 9.20284 | 1300 ft | 4 kts | 314° |
| 2026-05-01 14:22 | 48.69040 | 9.20311 | 1298 ft | 2 kts | 255° |
| 2026-05-01 14:23 | 48.69040 | 9.20314 | 1298 ft | 4 kts | 253° |
| 2026-05-01 14:26 | 48.69036 | 9.20294 | 1299 ft | 4 kts | 253° |
| 2026-05-01 14:27 | 48.69026 | 9.20241 | 1301 ft | 6 kts | 253° |
| 2026-05-01 14:27 | 48.69015 | 9.20182 | 1303 ft | 6 kts | 254° |
| 2026-05-01 14:27 | 48.68998 | 9.20092 | 1306 ft | 12 kts | 254° |
| 2026-05-01 14:28 | 48.68972 | 9.20009 | 1307 ft | 0 kts | 238° |
| 2026-05-01 14:34 | 48.68959 | 9.19977 | 1307 ft | 7 kts | 238° |
| 2026-05-01 14:35 | 48.68933 | 9.19914 | 1308 ft | 7 kts | 236° |
| 2026-05-01 14:35 | 48.68889 | 9.19881 | 1306 ft | 8 kts | 181° |
| 2026-05-01 14:35 | 48.68838 | 9.19900 | 1303 ft | 5 kts | 155° |
| 2026-05-01 14:35 | 48.68818 | 9.19917 | 1302 ft | 4 kts | 150° |
| 2026-05-01 14:36 | 48.68790 | 9.19936 | 1300 ft | 2 kts | 158° |
| 2026-05-01 14:36 | 48.68770 | 9.19947 | 1298 ft | 3 kts | 161° |
| 2026-05-01 14:36 | 48.68744 | 9.19959 | 1297 ft | 6 kts | 163° |
| 2026-05-01 14:36 | 48.68699 | 9.19979 | 1294 ft | 2 kts | 164° |
| 2026-05-01 14:39 | 48.68678 | 9.19988 | 1293 ft | 12 kts | 166° |
| 2026-05-01 14:39 | 48.68605 | 9.20026 | 1289 ft | 8 kts | 150° |
| 2026-05-01 14:39 | 48.68588 | 9.20104 | 1287 ft | 9 kts | 78° |
| 2026-05-01 14:39 | 48.68593 | 9.20127 | 1286 ft | 0 kts | 71° |
| 2026-05-01 14:41 | 48.68603 | 9.20174 | 1290 ft | 27 kts | 72° |
| 2026-05-01 14:41 | 48.68759 | 9.20997 | 1271 ft | 132 kts | 74° |
| 2026-05-01 14:41 | 48.69083 | 9.22673 | 1629 ft | 184 kts | 75° |
| 2026-05-01 14:41 | 48.69384 | 9.24416 | 3320 ft | 167 kts | 77° |
| 2026-05-01 14:42 | 48.69693 | 9.26131 | 4381 ft | 173 kts | 76° |
| 2026-05-01 14:42 | 48.70056 | 9.28034 | 4845 ft | 204 kts | 76° |
| 2026-05-01 14:42 | 48.70489 | 9.30265 | 5100 ft | 238 kts | 75° |
| 2026-05-01 14:42 | 48.70817 | 9.31933 | 5369 ft | 256 kts | 75° |